< < Back
Terminal Aerodrome Forecast


Current Version              Previous Versions:   1  2  3  4  5  6  7  8  9  

Terminal Aerodrome Forecast

145
FTUS42 KJAX 261739
TAFSSI
TAF
KSSI 261739Z 2618/2718 11011KT P6SM SKC
     FM270400 11005KT P6SM FEW030
     FM271400 08012KT P6SM FEW040=

Latest METAR

963
SAUS70 KWBC 261800 RRA
MTRSSI
METAR KSSI 261753Z AUTO 09005KT 10SM CLR 27/18 A3018 RMK AO2 SLP221
T02720183 10272 20250 57008


USA.gov is the U.S. government's official web portal to all federal, state and local government web resources and services.